createdAt,value
2019-06-07T00:01:52.973Z,23.70
2019-06-07T00:04:22.030Z,23.80
2019-06-07T00:06:51.077Z,23.80
2019-06-07T00:09:22.580Z,23.80
2019-06-07T00:11:50.993Z,23.80
2019-06-07T00:14:21.134Z,23.70
2019-06-07T00:16:50.734Z,23.80
2019-06-07T00:19:19.707Z,23.80
2019-06-07T00:24:21.886Z,23.70
2019-06-07T00:26:58.319Z,23.70
2019-06-07T00:29:22.010Z,23.70
2019-06-07T00:31:52.274Z,23.70
2019-06-07T00:34:23.152Z,23.70
2019-06-07T00:36:51.875Z,23.80
2019-06-07T00:39:25.235Z,23.60
2019-06-07T00:41:51.798Z,23.50
2019-06-07T00:44:23.050Z,23.10
2019-06-07T00:46:51.486Z,22.80
2019-06-07T00:49:36.212Z,23.10
2019-06-07T00:51:53.769Z,23.20
2019-06-07T00:54:24.713Z,23.30
2019-06-07T00:56:53.327Z,23.10
2019-06-07T00:59:28.815Z,23.30
2019-06-07T01:01:53.288Z,23.40
2019-06-07T01:04:25.299Z,23.40
2019-06-07T01:06:52.883Z,23.60
2019-06-07T01:09:23.970Z,23.70
2019-06-07T01:11:52.512Z,23.70
2019-06-07T01:14:22.642Z,23.40
2019-06-07T01:16:57.020Z,22.80
2019-06-07T01:19:26.427Z,22.70
2019-06-07T01:21:53.288Z,22.60
2019-06-07T01:24:24.617Z,22.30
2019-06-07T01:26:52.875Z,22.50
2019-06-07T01:29:24.204Z,22.50
2019-06-07T01:31:52.891Z,22.80
2019-06-07T01:34:25.385Z,22.90
2019-06-07T01:36:52.479Z,23.20
2019-06-07T01:39:24.081Z,23.40
2019-06-07T01:41:52.441Z,23.60
2019-06-07T01:44:24.197Z,23.30
2019-06-07T01:46:52.046Z,22.70
2019-06-07T01:49:22.177Z,22.30
2019-06-07T01:51:51.653Z,22.10
2019-06-07T01:54:55.508Z,22.00
2019-06-07T01:56:51.245Z,22.00
2019-06-07T01:59:22.903Z,22.20
2019-06-07T02:01:51.284Z,21.90
2019-06-07T02:04:38.035Z,21.70
2019-06-07T02:07:28.080Z,21.90
2019-06-07T02:09:56.532Z,22.40
2019-06-07T02:12:34.210Z,22.60
2019-06-07T02:14:56.138Z,22.70
2019-06-07T02:17:27.760Z,23.00
2019-06-07T02:19:56.017Z,23.10
2019-06-07T02:22:25.748Z,23.20
2019-06-07T02:25:34.407Z,23.30
2019-06-07T02:27:27.503Z,23.40
2019-06-07T02:29:56.978Z,23.50
2019-06-07T02:32:29.790Z,23.40
2019-06-07T02:34:56.907Z,23.40
2019-06-07T02:37:27.652Z,23.30
2019-06-07T02:39:56.490Z,23.30
2019-06-07T02:42:29.611Z,23.30
2019-06-07T02:44:56.468Z,23.00
2019-06-07T02:47:27.982Z,22.50
2019-06-07T02:49:56.045Z,22.50
2019-06-07T02:52:30.797Z,22.80
2019-06-07T02:54:55.939Z,23.00
2019-06-07T02:57:25.804Z,23.10
2019-06-07T03:00:07.563Z,23.10
2019-06-07T03:02:30.881Z,23.10
2019-06-07T03:04:57.122Z,23.10
2019-06-07T03:07:27.683Z,23.20
2019-06-07T03:09:56.718Z,23.20
2019-06-07T03:12:26.588Z,23.00
2019-06-07T03:14:55.737Z,22.80
2019-06-07T03:17:27.108Z,22.90
2019-06-07T03:19:58.331Z,23.00
2019-06-07T03:22:29.224Z,23.10
2019-06-07T03:24:58.239Z,23.30
2019-06-07T03:27:37.135Z,23.40
2019-06-07T03:29:58.181Z,23.30
2019-06-07T03:32:33.507Z,23.30
2019-06-07T03:34:57.771Z,23.30
2019-06-07T03:37:28.069Z,23.40
2019-06-07T03:39:57.361Z,23.40
2019-06-07T03:42:26.649Z,23.40
2019-06-07T03:44:56.057Z,23.30
2019-06-07T03:47:25.042Z,23.30
2019-06-07T03:49:54.022Z,23.30
2019-06-07T03:52:23.010Z,23.30
2019-06-07T03:54:52.302Z,23.30
2019-06-07T03:57:21.347Z,23.30
2019-06-07T03:59:50.324Z,23.40
2019-06-07T04:02:19.302Z,23.30
2019-06-07T04:04:48.627Z,23.40
2019-06-07T04:07:17.925Z,23.40
2019-06-07T04:09:46.911Z,23.40
2019-06-07T04:12:15.898Z,23.50
2019-06-07T04:14:44.925Z,23.60
2019-06-07T04:17:15.229Z,23.60
2019-06-07T04:19:44.221Z,23.60
2019-06-07T04:22:13.214Z,23.50
2019-06-07T04:24:43.331Z,23.50
2019-06-07T04:27:12.290Z,23.50
2019-06-07T04:30:02.955Z,23.50
2019-06-07T04:32:11.922Z,23.40
2019-06-07T04:34:43.067Z,23.40
2019-06-07T04:37:11.583Z,23.50
2019-06-07T04:39:44.690Z,23.60
2019-06-07T04:42:11.722Z,23.90
2019-06-07T04:44:42.727Z,24.00
2019-06-07T04:47:11.623Z,24.20
2019-06-07T04:49:43.841Z,24.30
2019-06-07T04:52:11.206Z,24.40
2019-06-07T04:54:45.578Z,24.60
2019-06-07T04:57:10.790Z,24.60
2019-06-07T05:00:11.026Z,24.80
2019-06-07T05:02:10.377Z,25.00
2019-06-07T05:04:42.098Z,24.80
2019-06-07T05:07:10.362Z,24.30
2019-06-07T05:09:42.924Z,24.70
2019-06-07T05:12:09.957Z,24.90
2019-06-07T05:14:40.001Z,25.00
2019-06-07T05:17:09.550Z,25.10
2019-06-07T05:19:39.172Z,25.10
2019-06-07T05:22:09.539Z,24.70
2019-06-07T05:24:41.528Z,24.50
2019-06-07T05:27:09.150Z,24.30
2019-06-07T05:29:39.171Z,24.30
2019-06-07T05:32:08.757Z,24.30
2019-06-07T05:34:41.888Z,24.30
2019-06-07T05:37:11.999Z,24.40
2019-06-07T05:39:42.573Z,24.70
2019-06-07T05:42:09.987Z,24.70
2019-06-07T05:44:40.007Z,24.70
2019-06-07T05:47:09.574Z,24.80
2019-06-07T05:49:41.680Z,25.00
2019-06-07T05:52:09.161Z,25.20
2019-06-07T05:54:39.855Z,25.30
2019-06-07T05:57:09.066Z,25.50
2019-06-07T05:59:41.135Z,25.50
2019-06-07T06:02:21.758Z,25.60
2019-06-07T06:04:45.176Z,25.70
2019-06-07T06:07:10.610Z,25.80
2019-06-07T06:09:40.672Z,25.90
2019-06-07T06:12:09.885Z,25.90
2019-06-07T06:14:41.951Z,26.10
2019-06-07T06:17:09.890Z,26.10
2019-06-07T06:19:40.654Z,26.10
2019-06-07T06:22:09.483Z,26.30
2019-06-07T06:24:39.362Z,26.40
2019-06-07T06:27:28.583Z,26.50
2019-06-07T06:29:40.581Z,26.50
2019-06-07T06:34:46.121Z,26.60
2019-06-07T06:37:13.548Z,26.70
2019-06-07T06:39:46.085Z,26.70
2019-06-07T06:42:13.471Z,26.80
2019-06-07T06:44:44.459Z,26.80
2019-06-07T06:47:13.049Z,26.90
2019-06-07T06:49:44.216Z,27.00
2019-06-07T06:52:13.422Z,27.00
2019-06-07T06:54:46.566Z,27.10
2019-06-07T06:57:19.758Z,27.10
2019-06-07T06:59:45.406Z,27.20
2019-06-07T07:02:14.245Z,27.30
2019-06-07T07:04:44.019Z,27.30
2019-06-07T07:07:13.852Z,27.30
2019-06-07T07:09:47.162Z,27.40
2019-06-07T07:12:15.117Z,27.50
2019-06-07T07:14:47.011Z,27.30
2019-06-07T07:17:14.653Z,27.20
2019-06-07T07:19:47.955Z,27.40
2019-06-07T07:22:14.682Z,27.70
2019-06-07T07:24:44.442Z,27.80
2019-06-07T07:27:15.123Z,27.60
2019-06-07T07:29:47.841Z,27.50
2019-06-07T07:32:15.739Z,27.30
2019-06-07T07:34:46.135Z,27.20
2019-06-07T07:37:15.699Z,27.40
2019-06-07T07:39:46.366Z,27.50
2019-06-07T07:42:21.192Z,27.70
2019-06-07T07:44:47.202Z,27.70
2019-06-07T07:47:16.829Z,27.90
2019-06-07T07:49:48.455Z,27.90
2019-06-07T07:52:16.809Z,27.90
2019-06-07T07:54:46.741Z,28.00
2019-06-07T07:57:15.794Z,27.90
2019-06-07T08:00:04.477Z,27.90
2019-06-07T08:02:15.693Z,28.20
2019-06-07T08:07:15.610Z,28.80
2019-06-07T08:09:44.995Z,28.30
2019-06-07T08:12:13.995Z,28.40
2019-06-07T08:14:43.022Z,28.40
2019-06-07T08:17:12.019Z,28.90
2019-06-07T08:19:41.006Z,28.60
2019-06-07T08:22:10.381Z,28.50
2019-06-07T08:24:39.366Z,28.50
2019-06-07T08:27:25.359Z,28.50
2019-06-07T08:29:45.093Z,28.50
2019-06-07T08:32:09.929Z,28.20
2019-06-07T08:34:39.115Z,28.50
2019-06-07T08:37:08.634Z,28.90
2019-06-07T08:39:38.044Z,29.20
2019-06-07T08:42:17.629Z,29.50
2019-06-07T08:44:37.658Z,29.70
2019-06-07T08:47:19.805Z,29.90
2019-06-07T08:49:37.739Z,30.00
2019-06-07T08:52:11.974Z,30.10
2019-06-07T08:54:37.739Z,30.20
2019-06-07T08:57:20.751Z,30.50
2019-06-07T08:59:38.457Z,30.60
2019-06-07T09:02:22.862Z,30.70
2019-06-07T09:04:38.023Z,30.80
2019-06-07T09:07:18.923Z,30.70
2019-06-07T09:09:37.620Z,30.70
2019-06-07T09:12:10.783Z,30.90
2019-06-07T09:14:56.541Z,30.70
2019-06-07T09:17:12.055Z,30.80
2019-06-07T09:19:38.438Z,30.80
2019-06-07T09:22:11.200Z,30.90
2019-06-07T09:24:38.055Z,31.00
2019-06-07T09:27:08.349Z,30.90
2019-06-07T09:29:37.957Z,30.90
2019-06-07T09:32:11.993Z,30.90
2019-06-07T09:34:38.042Z,30.90
2019-06-07T09:37:54.815Z,30.90
2019-06-07T09:39:37.669Z,30.90
2019-06-07T09:42:10.589Z,31.00
2019-06-07T09:44:37.774Z,31.00
2019-06-07T09:47:22.287Z,31.00
2019-06-07T09:49:37.401Z,31.20
2019-06-07T09:52:09.091Z,31.30
2019-06-07T09:55:04.372Z,31.40
2019-06-07T09:57:16.463Z,31.40
2019-06-07T09:59:38.593Z,31.40
2019-06-07T10:02:13.254Z,31.50
2019-06-07T10:04:38.184Z,31.40
2019-06-07T10:07:26.923Z,31.30
2019-06-07T10:12:08.589Z,31.30
2019-06-07T10:14:38.002Z,31.50
2019-06-07T10:17:07.350Z,31.50
2019-06-07T10:19:36.786Z,31.60
2019-06-07T10:22:07.666Z,31.50
2019-06-07T10:24:37.135Z,31.60
2019-06-07T10:27:07.877Z,31.60
2019-06-07T10:29:36.933Z,31.60
2019-06-07T10:32:06.887Z,31.70
2019-06-07T10:34:36.208Z,31.60
2019-06-07T10:37:08.781Z,31.60
2019-06-07T10:39:47.995Z,31.50
2019-06-07T10:42:07.654Z,31.40
2019-06-07T10:44:37.009Z,31.30
2019-06-07T10:47:06.127Z,31.20
2019-06-07T10:49:35.289Z,31.10
2019-06-07T10:52:06.646Z,31.00
2019-06-07T10:54:34.885Z,30.80
2019-06-07T10:57:04.861Z,30.60
2019-06-07T10:59:34.918Z,30.40
2019-06-07T11:02:05.609Z,30.40
2019-06-07T11:04:34.721Z,30.30
2019-06-07T11:07:04.503Z,30.20
2019-06-07T11:09:34.321Z,30.10
2019-06-07T11:12:04.324Z,30.00
2019-06-07T11:14:33.419Z,30.00
2019-06-07T11:17:02.710Z,30.00
2019-06-07T11:19:31.702Z,29.80
2019-06-07T11:22:01.281Z,29.70
2019-06-07T11:24:31.339Z,29.70
2019-06-07T11:27:00.326Z,29.70
2019-06-07T11:29:29.319Z,29.60
2019-06-07T11:31:58.694Z,29.60
2019-06-07T11:34:27.702Z,29.60
2019-06-07T11:36:56.686Z,29.60
2019-06-07T11:39:25.670Z,29.50
2019-06-07T11:41:54.976Z,29.50
2019-06-07T11:44:23.953Z,29.50
2019-06-07T11:46:52.989Z,29.50
2019-06-07T11:49:22.461Z,29.40
2019-06-07T11:51:51.450Z,29.40
2019-06-07T11:54:20.732Z,29.30
2019-06-07T11:56:49.846Z,29.30
2019-06-07T11:59:19.161Z,29.30
2019-06-07T12:01:48.553Z,29.20
2019-06-07T12:04:33.579Z,29.20
2019-06-07T12:06:48.506Z,29.20
2019-06-07T12:09:18.785Z,29.20
2019-06-07T12:11:47.897Z,29.20
2019-06-07T12:14:19.214Z,29.10
2019-06-07T12:16:48.437Z,29.10
2019-06-07T12:19:17.717Z,29.10
2019-06-07T12:21:46.718Z,29.10
2019-06-07T12:24:16.289Z,29.00
2019-06-07T12:26:45.346Z,28.90
2019-06-07T12:29:14.906Z,28.90
2019-06-07T12:31:44.071Z,29.00
2019-06-07T12:34:13.257Z,29.00
2019-06-07T12:36:42.444Z,28.90
2019-06-07T12:39:11.878Z,29.00
2019-06-07T12:41:41.267Z,29.00
2019-06-07T12:44:10.245Z,29.00
2019-06-07T12:46:39.242Z,29.00
2019-06-07T12:49:08.217Z,29.00
2019-06-07T12:51:37.748Z,28.90
2019-06-07T12:54:06.730Z,28.90
2019-06-07T12:56:35.789Z,28.90
2019-06-07T12:59:05.143Z,29.00
2019-06-07T13:01:34.122Z,29.00
2019-06-07T13:04:03.243Z,29.00
2019-06-07T13:06:32.227Z,29.00
2019-06-07T13:09:01.555Z,29.10
2019-06-07T13:11:32.458Z,29.00
2019-06-07T13:14:01.867Z,29.00
2019-06-07T13:16:30.845Z,29.00
2019-06-07T13:19:00.259Z,29.00
2019-06-07T13:21:30.340Z,28.90
2019-06-07T13:23:59.320Z,29.00
2019-06-07T13:26:28.670Z,29.00
2019-06-07T13:28:57.812Z,29.00
2019-06-07T13:31:27.337Z,29.00
2019-06-07T13:33:56.490Z,29.00
2019-06-07T13:36:25.482Z,28.90
2019-06-07T13:38:54.787Z,28.90
2019-06-07T13:41:36.816Z,28.90
2019-06-07T13:43:55.110Z,28.90
2019-06-07T13:46:25.334Z,28.90
2019-06-07T13:48:54.461Z,28.90
2019-06-07T13:51:25.242Z,28.90
2019-06-07T13:53:55.150Z,28.90
2019-06-07T13:56:25.913Z,28.90
2019-06-07T13:58:55.419Z,28.90
2019-06-07T14:01:24.656Z,28.90
2019-06-07T14:03:53.699Z,28.90
2019-06-07T14:06:23.519Z,28.90
2019-06-07T14:08:52.921Z,28.90
2019-06-07T14:11:21.911Z,28.90
2019-06-07T14:13:50.903Z,28.90
2019-06-07T14:16:20.075Z,28.90
2019-06-07T14:18:49.217Z,28.90
2019-06-07T14:21:18.209Z,28.90
2019-06-07T14:23:49.254Z,28.90
2019-06-07T14:26:17.815Z,28.90
2019-06-07T14:28:46.826Z,28.90
2019-06-07T14:31:15.802Z,28.90
2019-06-07T14:33:44.830Z,28.90
2019-06-07T14:36:13.810Z,28.90
2019-06-07T14:38:43.116Z,28.80
2019-06-07T14:41:12.106Z,28.90
2019-06-07T14:43:41.289Z,28.90
2019-06-07T14:46:10.499Z,28.90
2019-06-07T14:48:39.567Z,28.90
2019-06-07T14:51:08.889Z,28.80
2019-06-07T14:53:37.879Z,28.80
2019-06-07T14:56:07.283Z,28.70
2019-06-07T14:58:40.090Z,28.80
2019-06-07T15:01:06.867Z,28.80
2019-06-07T15:03:35.879Z,28.80
2019-06-07T15:06:04.874Z,28.80
2019-06-07T15:08:34.914Z,28.80
2019-06-07T15:11:04.090Z,28.80
2019-06-07T15:13:33.668Z,28.80
2019-06-07T15:16:02.809Z,28.70
2019-06-07T15:18:32.120Z,28.80
2019-06-07T15:21:01.090Z,28.80
2019-06-07T15:23:31.139Z,28.80
2019-06-07T15:26:00.192Z,28.90
2019-06-07T15:28:30.123Z,28.70
2019-06-07T15:30:59.288Z,28.70
2019-06-07T15:33:28.271Z,28.80
2019-06-07T15:35:57.265Z,28.80
2019-06-07T15:38:26.243Z,28.80
2019-06-07T15:40:55.233Z,28.80
2019-06-07T15:43:24.219Z,28.80
2019-06-07T15:45:53.284Z,28.80
2019-06-07T15:48:22.601Z,28.80
2019-06-07T15:50:51.591Z,28.80
2019-06-07T15:53:20.997Z,28.80
2019-06-07T15:55:49.970Z,28.70
2019-06-07T15:58:18.964Z,28.70
2019-06-07T16:00:50.088Z,28.60
2019-06-07T16:03:18.873Z,28.60
2019-06-07T16:05:47.857Z,28.60
2019-06-07T16:08:16.874Z,28.50
2019-06-07T16:10:45.846Z,28.50
2019-06-07T16:13:15.203Z,28.40
2019-06-07T16:15:44.191Z,28.40
2019-06-07T16:18:13.686Z,28.40
2019-06-07T16:20:43.754Z,28.50
2019-06-07T16:23:12.871Z,28.50
2019-06-07T16:25:42.244Z,28.50
2019-06-07T16:28:11.189Z,28.40
2019-06-07T16:30:40.638Z,28.40
2019-06-07T16:33:09.773Z,28.40
2019-06-07T16:35:39.115Z,28.40
2019-06-07T16:38:08.098Z,28.40
2019-06-07T16:40:38.296Z,28.30
2019-06-07T16:43:16.844Z,28.40
2019-06-07T16:45:40.698Z,28.40
2019-06-07T16:48:09.834Z,28.30
2019-06-07T16:50:38.832Z,28.40
2019-06-07T16:53:08.210Z,28.40
2019-06-07T16:55:38.658Z,28.40
2019-06-07T16:58:08.138Z,28.40
2019-06-07T17:00:38.700Z,28.40
2019-06-07T17:03:08.303Z,28.30
2019-06-07T17:05:37.767Z,28.20
2019-06-07T17:08:06.902Z,28.10
2019-06-07T17:10:35.849Z,28.20
2019-06-07T17:13:04.846Z,28.20
2019-06-07T17:15:33.844Z,28.10
2019-06-07T17:18:02.845Z,28.10
2019-06-07T17:20:31.835Z,28.10
2019-06-07T17:23:01.131Z,28.10
2019-06-07T17:25:30.114Z,28.00
2019-06-07T17:27:59.097Z,28.00
2019-06-07T17:30:28.090Z,28.00
2019-06-07T17:32:59.459Z,28.00
2019-06-07T17:35:27.699Z,27.70
2019-06-07T17:37:56.701Z,27.60
2019-06-07T17:40:25.690Z,27.50
2019-06-07T17:42:54.678Z,27.30
2019-06-07T17:45:23.662Z,27.30
2019-06-07T17:47:52.693Z,27.30
2019-06-07T17:50:21.678Z,27.10
2019-06-07T17:52:52.103Z,27.10
2019-06-07T17:55:21.527Z,27.00
2019-06-07T17:57:50.887Z,27.00
2019-06-07T18:00:28.754Z,27.00
2019-06-07T18:02:50.991Z,27.10
2019-06-07T18:05:20.374Z,27.00
2019-06-07T18:07:51.700Z,27.00
2019-06-07T18:10:22.549Z,26.80
2019-06-07T18:12:52.877Z,26.70
2019-06-07T18:15:23.694Z,26.60
2019-06-07T18:17:52.829Z,26.60
2019-06-07T18:20:21.785Z,26.60
2019-06-07T18:22:51.266Z,26.70
2019-06-07T18:25:20.688Z,26.60
2019-06-07T18:27:50.632Z,26.60
2019-06-07T18:30:19.650Z,26.60
2019-06-07T18:32:48.785Z,26.50
2019-06-07T18:35:17.952Z,26.50
2019-06-07T18:37:47.046Z,26.60
2019-06-07T18:40:16.099Z,26.60
2019-06-07T18:42:45.086Z,26.60
2019-06-07T18:45:14.331Z,26.60
2019-06-07T18:47:43.323Z,26.50
2019-06-07T18:50:12.693Z,26.50
2019-06-07T18:52:43.261Z,26.50
2019-06-07T18:55:12.242Z,26.50
2019-06-07T18:57:41.230Z,26.40
2019-06-07T19:00:14.374Z,26.40
2019-06-07T19:02:43.420Z,26.30
2019-06-07T19:05:12.811Z,26.30
2019-06-07T19:07:41.795Z,26.30
2019-06-07T19:10:11.554Z,26.30
2019-06-07T19:12:40.534Z,26.30
2019-06-07T19:15:10.519Z,26.30
2019-06-07T19:17:39.487Z,26.30
2019-06-07T19:20:08.479Z,26.30
2019-06-07T19:22:37.902Z,26.20
2019-06-07T19:25:06.894Z,26.20
2019-06-07T19:27:35.892Z,26.20
2019-06-07T19:30:05.942Z,26.30
2019-06-07T19:32:34.918Z,26.20
2019-06-07T19:35:04.273Z,26.10
2019-06-07T19:37:33.263Z,26.00
2019-06-07T19:40:02.819Z,26.10
2019-06-07T19:42:31.943Z,26.10
2019-06-07T19:45:28.483Z,26.10
2019-06-07T19:47:31.938Z,26.20
2019-06-07T19:50:01.245Z,26.20
2019-06-07T19:52:30.294Z,26.20
2019-06-07T19:54:59.841Z,26.20
2019-06-07T19:57:29.343Z,26.10
2019-06-07T19:59:59.485Z,26.10
2019-06-07T20:02:28.969Z,26.20
2019-06-07T20:05:01.404Z,26.20
2019-06-07T20:07:28.577Z,26.20
2019-06-07T20:09:58.706Z,26.20
2019-06-07T20:12:28.104Z,26.10
2019-06-07T20:15:20.121Z,26.10
2019-06-07T20:17:28.054Z,26.00
2019-06-07T20:19:58.206Z,25.90
2019-06-07T20:22:27.344Z,25.90
2019-06-07T20:24:56.773Z,25.80
2019-06-07T20:27:25.818Z,25.80
2019-06-07T20:29:56.047Z,25.90
2019-06-07T20:32:25.192Z,25.90
2019-06-07T20:34:54.182Z,25.90
2019-06-07T20:37:23.584Z,25.80
2019-06-07T20:39:52.567Z,25.90
2019-06-07T20:42:21.575Z,25.90
2019-06-07T20:44:52.502Z,26.00
2019-06-07T20:47:21.915Z,26.00
2019-06-07T20:49:50.900Z,26.10
2019-06-07T20:52:19.906Z,26.10
2019-06-07T20:54:48.899Z,26.10
2019-06-07T20:57:18.292Z,26.10
2019-06-07T20:59:47.695Z,26.10
2019-06-07T21:02:23.185Z,26.20
2019-06-07T21:04:54.462Z,26.10
2019-06-07T21:07:23.998Z,26.20
2019-06-07T21:09:52.991Z,26.10
2019-06-07T21:12:22.390Z,26.00
2019-06-07T21:14:51.393Z,25.90
2019-06-07T21:17:21.723Z,25.90
2019-06-07T21:19:50.719Z,25.90
2019-06-07T21:22:20.109Z,25.80
2019-06-07T21:24:51.418Z,25.80
2019-06-07T21:27:20.439Z,25.80
2019-06-07T21:29:54.402Z,25.70
2019-06-07T21:32:24.666Z,25.80
2019-06-07T21:34:53.839Z,25.70
2019-06-07T21:37:22.882Z,25.70
2019-06-07T21:39:54.386Z,25.70
2019-06-07T21:42:23.398Z,25.60
2019-06-07T21:44:52.546Z,25.60
2019-06-07T21:47:22.081Z,25.60
2019-06-07T21:49:51.436Z,25.50
2019-06-07T21:52:20.436Z,25.50
2019-06-07T21:54:49.434Z,25.50
2019-06-07T21:57:18.413Z,25.50
2019-06-07T21:59:47.758Z,25.60
2019-06-07T22:02:17.123Z,25.50
2019-06-07T22:04:46.671Z,25.40
2019-06-07T22:07:15.644Z,25.30
2019-06-07T22:09:44.641Z,25.40
2019-06-07T22:12:14.268Z,25.40
2019-06-07T22:14:44.665Z,25.30
2019-06-07T22:17:14.534Z,25.30
2019-06-07T22:19:43.659Z,25.30
2019-06-07T22:22:12.986Z,25.30
2019-06-07T22:24:42.555Z,25.30
2019-06-07T22:27:13.406Z,25.30
2019-06-07T22:29:42.617Z,25.30
2019-06-07T22:32:12.863Z,25.30
2019-06-07T22:34:41.990Z,25.20
2019-06-07T22:37:11.360Z,25.20
2019-06-07T22:39:40.715Z,25.30
2019-06-07T22:42:12.063Z,25.20
2019-06-07T22:44:41.928Z,25.30
2019-06-07T22:47:12.037Z,25.30
2019-06-07T22:49:42.174Z,25.30
2019-06-07T22:52:13.506Z,25.20
2019-06-07T22:54:42.114Z,25.20
2019-06-07T22:57:14.117Z,25.10
2019-06-07T22:59:43.144Z,25.10
2019-06-07T23:02:12.730Z,25.10
2019-06-07T23:04:41.820Z,25.10
2019-06-07T23:07:10.872Z,25.10
2019-06-07T23:09:39.893Z,24.90
2019-06-07T23:12:09.118Z,24.70
2019-06-07T23:14:38.244Z,24.70
2019-06-07T23:17:07.270Z,24.60
2019-06-07T23:19:36.259Z,24.60
2019-06-07T23:22:05.255Z,24.60
2019-06-07T23:24:34.669Z,24.70
2019-06-07T23:27:03.662Z,24.70
2019-06-07T23:29:32.637Z,24.60
2019-06-07T23:32:01.623Z,24.60
2019-06-07T23:34:30.610Z,24.50
2019-06-07T23:36:59.599Z,24.50
2019-06-07T23:39:29.052Z,24.60
2019-06-07T23:41:58.448Z,24.60
2019-06-07T23:44:27.962Z,24.50
2019-06-07T23:47:10.473Z,24.50
2019-06-07T23:49:27.546Z,24.50
2019-06-07T23:51:56.882Z,24.50
2019-06-07T23:54:25.861Z,24.50
2019-06-07T23:56:54.850Z,24.50
2019-06-07T23:59:23.830Z,24.50
